Time;durP1;ratioP1;P1;durP2;ratioP2;P2;SDS_P1;SDS_P2;PMS_P1;PMS_P2;Temp;Humidity;BMP_temperature;BMP_pressure;BME280_temperature;BME280_humidity;BME280_pressure;Samples;Min_cycle;Max_cycle;Signal;HPM_P1;HPM_P2
2022/08/09 00:02:32;;;;;;;6.68;5.30;;;;;;;19.31;100.00;96938.94;5079084;28;20068;-39
2022/08/09 00:05:01;;;;;;;6.72;5.07;;;;;;;19.21;100.00;96933.88;5081680;28;20075;-39
2022/08/09 00:07:51;;;;;;;11.48;5.85;;;;;;;19.23;100.00;96939.03;5082059;28;20521;-43
2022/08/09 00:10:21;;;;;;;5.88;5.28;;;;;;;19.16;100.00;96948.81;5076910;28;20131;-39
2022/08/09 00:12:52;;;;;;;7.80;5.18;;;;;;;19.16;100.00;96946.97;5088982;28;20075;-39
2022/08/09 00:15:21;;;;;;;5.55;5.05;;;;;;;19.09;100.00;96943.38;5085160;28;20075;-41
2022/08/09 00:18:09;;;;;;;6.43;5.35;;;;;;;19.03;100.00;96948.66;5089274;28;20087;-41
2022/08/09 00:20:41;;;;;;;5.93;4.97;;;;;;;18.93;100.00;96947.09;5074028;28;20120;-41
2022/08/09 00:23:18;;;;;;;6.28;5.68;;;;;;;18.67;100.00;96946.69;5069656;28;20106;-47
2022/08/09 00:26:07;;;;;;;7.72;5.50;;;;;;;18.75;100.00;96946.63;5085704;28;20082;-41
2022/08/09 00:28:39;;;;;;;6.00;5.45;;;;;;;18.65;100.00;96941.56;5080443;28;20084;-40
2022/08/09 00:31:07;;;;;;;6.15;5.55;;;;;;;18.57;100.00;96943.47;5083690;28;20072;-43
2022/08/09 00:33:56;;;;;;;6.20;5.60;;;;;;;18.61;100.00;96947.41;5072978;28;20076;-41
2022/08/09 00:36:25;;;;;;;6.70;5.95;;;;;;;18.73;100.00;96949.50;5076207;28;20106;-41
2022/08/09 00:38:59;;;;;;;6.68;5.93;;;;;;;18.51;100.00;96953.03;5069712;28;20087;-40
2022/08/09 00:41:27;;;;;;;7.18;6.40;;;;;;;18.67;100.00;96947.53;5075497;28;20081;-40
2022/08/09 00:44:16;;;;;;;7.57;6.20;;;;;;;18.64;100.00;96942.53;5076914;28;20472;-42
2022/08/09 00:46:55;;;;;;;8.07;6.10;;;;;;;18.63;100.00;96937.41;5080515;28;20577;-43
2022/08/09 00:49:33;;;;;;;6.45;5.72;;;;;;;18.64;100.00;96947.06;5077546;28;20668;-38
2022/08/09 00:52:04;;;;;;;7.00;6.28;;;;;;;18.65;100.00;96949.56;5068859;28;20092;-42
2022/08/09 00:54:47;;;;;;;9.32;6.28;;;;;;;18.64;100.00;96947.88;5073529;28;20514;-39
2022/08/09 00:57:16;;;;;;;7.95;6.70;;;;;;;18.62;100.00;96944.59;5077280;28;20084;-40
2022/08/09 01:00:05;;;;;;;8.30;7.07;;;;;;;18.58;100.00;96951.31;5076320;28;20080;-44
2022/08/09 01:02:51;;;;;;;9.00;7.72;;;;;;;18.50;100.00;96956.72;5071326;28;20076;-42
2022/08/09 01:05:26;;;;;;;9.57;8.57;;;;;;;18.44;100.00;96952.94;5072883;28;20104;-43
2022/08/09 01:08:20;;;;;;;10.63;7.82;;;;;;;18.31;100.00;96950.06;5081429;28;20076;-39
2022/08/09 01:11:03;;;;;;;8.18;7.38;;;;;;;18.16;100.00;96960.69;5081949;28;20087;-45
2022/08/09 01:13:45;;;;;;;8.68;7.70;;;;;;;18.30;100.00;96955.56;5087246;28;20071;-40
2022/08/09 01:16:32;;;;;;;9.88;8.15;;;;;;;18.33;100.00;96958.72;5071050;28;20084;-41
2022/08/09 01:19:13;;;;;;;10.60;8.38;;;;;;;18.29;100.00;96967.28;5069345;28;20084;-40
2022/08/09 01:22:08;;;;;;;11.55;8.52;;;;;;;18.10;100.00;96963.25;5078992;28;20090;-42
2022/08/09 01:24:51;;;;;;;8.65;7.75;;;;;;;18.26;100.00;96965.78;5082263;28;20075;-42
2022/08/09 01:27:22;;;;;;;10.30;8.07;;;;;;;18.22;100.00;96965.31;5074896;28;20091;-40
2022/08/09 01:29:55;;;;;;;16.35;7.97;;;;;;;18.30;100.00;96961.75;5075253;28;20087;-45
2022/08/09 01:32:27;;;;;;;8.32;7.57;;;;;;;17.89;100.00;96964.75;5068112;28;20451;-39
2022/08/09 01:35:05;;;;;;;9.27;8.05;;;;;;;18.23;100.00;96961.63;5072929;28;20727;-43
2022/08/09 01:37:58;;;;;;;8.30;7.13;;;;;;;18.15;100.00;96953.69;5069293;28;20080;-45
2022/08/09 01:40:41;;;;;;;7.70;6.97;;;;;;;18.18;100.00;96956.00;5074801;28;20079;-46
2022/08/09 01:43:11;;;;;;;8.95;7.20;;;;;;;17.96;100.00;96962.19;5078400;28;20530;-40
2022/08/09 01:45:40;;;;;;;9.10;6.72;;;;;;;18.04;100.00;96967.47;5079481;28;20533;-39
2022/08/09 01:48:16;;;;;;;8.43;6.45;;;;;;;17.74;100.00;96969.16;5085638;28;20154;-44
2022/08/09 01:50:46;;;;;;;7.07;6.38;;;;;;;17.53;100.00;96972.47;5083062;28;20110;-42
2022/08/09 01:53:16;;;;;;;12.45;7.28;;;;;;;17.68;100.00;96973.34;5075076;28;20087;-39
2022/08/09 01:55:47;;;;;;;7.25;6.55;;;;;;;17.79;100.00;96973.00;5081984;28;20522;-43
2022/08/09 01:58:17;;;;;;;7.65;6.95;;;;;;;17.89;100.00;96971.91;5077521;28;20084;-40
2022/08/09 02:00:51;;;;;;;10.68;8.18;;;;;;;17.86;100.00;96972.28;5082021;28;20087;-43
2022/08/09 02:03:21;;;;;;;8.55;7.75;;;;;;;17.65;100.00;96968.41;5068080;28;20098;-44
2022/08/09 02:05:52;;;;;;;8.20;7.40;;;;;;;17.62;100.00;96967.91;5076832;28;20534;-40
2022/08/09 02:08:34;;;;;;;7.80;6.97;;;;;;;17.51;100.00;96971.78;5080005;28;20095;-42
2022/08/09 02:11:23;;;;;;;11.02;7.40;;;;;;;17.25;100.00;96970.28;5081505;28;20543;-42
2022/08/09 02:14:11;;;;;;;9.20;7.40;;;;;;;17.36;100.00;96971.72;5075832;28;20098;-40
2022/08/09 02:16:52;;;;;;;8.88;6.50;;;;;;;17.29;100.00;96970.75;5078544;28;20086;-47
2022/08/09 02:19:41;;;;;;;8.85;6.65;;;;;;;17.21;100.00;96976.97;5084859;28;20100;-39
2022/08/09 02:22:16;;;;;;;8.55;7.00;;;;;;;17.41;100.00;96979.19;5082361;28;20076;-45
2022/08/09 02:24:57;;;;;;;11.05;7.13;;;;;;;17.29;100.00;96976.91;5080156;28;20080;-42
2022/08/09 02:27:29;;;;;;;7.78;6.88;;;;;;;17.37;100.00;96980.53;5085995;28;20413;-40
2022/08/09 02:30:19;;;;;;;7.43;6.53;;;;;;;17.30;100.00;96975.06;5085868;28;20056;-42
2022/08/09 02:32:48;;;;;;;8.70;7.15;;;;;;;17.33;100.00;96980.88;5091503;28;20095;-40
2022/08/09 02:35:19;;;;;;;;;;;;;;;17.27;100.00;96975.41;5086016;28;20102;-42
2022/08/09 02:38:09;;;;;;;8.10;6.05;;;;;;;17.31;100.00;96976.75;5088336;28;20202;-41
2022/08/09 02:40:49;;;;;;;7.18;6.47;;;;;;;17.32;100.00;96976.56;5076495;28;20084;-41
2022/08/09 02:43:20;;;;;;;7.88;6.45;;;;;;;17.31;100.00;96977.59;5085478;28;20087;-43
2022/08/09 02:45:52;;;;;;;7.43;6.50;;;;;;;17.38;100.00;96967.06;5073846;28;20072;-41
2022/08/09 02:48:21;;;;;;;8.88;6.40;;;;;;;17.35;100.00;96969.25;5091221;28;20079;-44
2022/08/09 02:51:00;;;;;;;7.45;6.20;;;;;;;17.35;100.00;96962.06;5079128;28;20079;-43
2022/08/09 02:53:33;;;;;;;7.85;6.55;;;;;;;17.39;100.00;96973.22;5072297;28;20076;-42
2022/08/09 02:56:04;;;;;;;7.32;6.55;;;;;;;17.39;100.00;96967.88;5073330;28;20076;-41
2022/08/09 02:58:33;;;;;;;9.20;7.10;;;;;;;17.22;100.00;96977.78;5079602;28;20101;-42
2022/08/09 03:01:07;;;;;;;8.90;6.60;;;;;;;17.31;100.00;96969.59;5082027;28;20048;-40
2022/08/09 03:03:39;;;;;;;7.55;6.57;;;;;;;17.31;100.00;96972.25;5083796;28;20080;-39
2022/08/09 03:06:29;;;;;;;10.95;6.72;;;;;;;17.31;100.00;96974.09;5090384;28;20492;-41
2022/08/09 03:08:59;;;;;;;8.88;6.75;;;;;;;17.22;100.00;96977.78;5072624;28;20080;-42
2022/08/09 03:11:28;;;;;;;11.55;7.43;;;;;;;17.26;100.00;96976.44;5082679;28;20428;-44
2022/08/09 03:14:17;;;;;;;9.57;7.22;;;;;;;17.07;100.00;96978.53;5079772;28;20079;-42
2022/08/09 03:16:50;;;;;;;8.18;7.32;;;;;;;17.15;100.00;96971.50;5073785;28;20072;-41
2022/08/09 03:19:19;;;;;;;9.13;7.68;;;;;;;17.12;100.00;96974.50;5082009;28;20091;-42
2022/08/09 03:22:09;;;;;;;8.55;7.30;;;;;;;17.32;100.00;96965.06;5070972;28;20524;-46
2022/08/09 03:24:52;;;;;;;10.65;8.07;;;;;;;17.36;100.00;96965.56;5081430;28;20087;-43
2022/08/09 03:27:41;;;;;;;9.75;7.97;;;;;;;17.35;100.00;96970.06;5073167;28;20072;-40
2022/08/09 03:30:13;;;;;;;8.30;7.45;;;;;;;17.31;100.00;96966.91;5081998;28;20263;-44
2022/08/09 03:32:59;;;;;;;8.10;7.30;;;;;;;17.41;100.00;96968.50;5083437;28;20095;-42
2022/08/09 03:35:33;;;;;;;8.60;7.53;;;;;;;17.36;100.00;96976.22;5084491;28;20778;-43
2022/08/09 03:38:21;;;;;;;8.98;7.85;;;;;;;17.49;100.00;96976.50;5088517;28;20048;-40
2022/08/09 03:40:57;;;;;;;8.80;7.90;;;;;;;17.50;100.00;96970.16;5073160;28;20080;-40
2022/08/09 03:43:26;;;;;;;9.50;7.40;;;;;;;17.52;100.00;96970.81;5077469;28;20471;-39
2022/08/09 03:46:00;;;;;;;9.10;7.50;;;;;;;17.64;100.00;96977.38;5076442;28;20088;-40
2022/08/09 03:48:49;;;;;;;10.35;7.68;;;;;;;17.54;100.00;96980.28;5078186;28;20084;-38
2022/08/09 03:51:20;;;;;;;10.15;7.60;;;;;;;17.58;100.00;96986.09;5070498;28;20095;-43
2022/08/09 03:54:08;;;;;;;10.65;7.72;;;;;;;17.75;100.00;96982.31;5070659;28;20101;-41
2022/08/09 03:56:39;;;;;;;9.25;7.80;;;;;;;17.52;100.00;96981.47;5085514;28;20479;-42
2022/08/09 03:59:09;;;;;;;8.13;7.32;;;;;;;17.87;100.00;96995.28;5085757;28;20091;-42
2022/08/09 04:01:49;;;;;;;7.80;7.00;;;;;;;17.72;100.00;96989.84;5081877;28;20080;-39
2022/08/09 04:04:19;;;;;;;9.85;7.13;;;;;;;17.93;100.00;96997.25;5078920;28;20091;-45
2022/08/09 04:06:51;;;;;;;7.43;6.60;;;;;;;17.89;100.00;97001.28;5075825;28;20087;-40
2022/08/09 04:09:20;;;;;;;11.85;7.35;;;;;;;17.87;100.00;97005.97;5077646;28;20102;-43
2022/08/09 04:12:33;;;;;;;8.95;6.70;;;;;;;17.86;100.00;97002.47;5078229;28;20749;-40
2022/08/09 04:15:02;;;;;;;9.20;7.65;;;;;;;17.87;100.00;97008.63;5078264;28;20086;-41
2022/08/09 04:17:50;;;;;;;10.18;7.72;;;;;;;18.08;100.00;97011.47;5077648;28;20068;-40
2022/08/09 04:20:20;;;;;;;8.88;7.97;;;;;;;18.05;100.00;97009.16;5076388;28;20088;-44
2022/08/09 04:22:50;;;;;;;8.77;7.80;;;;;;;18.05;100.00;97011.00;5069940;28;20629;-40
2022/08/09 04:25:18;;;;;;;13.38;8.32;;;;;;;18.34;100.00;97010.28;5074073;28;20095;-43
2022/08/09 04:27:49;;;;;;;9.10;8.10;;;;;;;19.26;100.00;97005.53;5078509;28;20080;-42
2022/08/09 04:30:21;;;;;;;8.90;8.00;;;;;;;19.91;100.00;96999.31;5087971;28;20471;-40
2022/08/09 04:32:53;;;;;;;8.77;7.30;;;;;;;20.47;100.00;97003.94;5070146;28;20736;-40
2022/08/09 04:35:23;;;;;;;8.15;6.97;;;;;;;21.13;100.00;96998.28;5076470;28;20087;-40
2022/08/09 04:37:51;;;;;;;7.05;6.40;;;;;;;21.59;100.00;96999.53;5080513;28;20463;-41
2022/08/09 04:40:20;;;;;;;6.53;5.93;;;;;;;22.13;100.00;96995.97;5076344;28;20084;-43
2022/08/09 04:43:04;;;;;;;7.47;6.47;;;;;;;22.69;100.00;97001.81;5079579;28;20663;-40
2022/08/09 04:45:32;;;;;;;6.75;6.15;;;;;;;23.04;100.00;97004.28;5073712;28;20087;-41
2022/08/09 04:48:21;;;;;;;7.32;6.63;;;;;;;23.31;100.00;97001.53;5070289;28;20088;-45
2022/08/09 04:51:02;;;;;;;7.60;6.80;;;;;;;23.86;96.93;97007.34;5076028;28;20084;-41
2022/08/09 04:53:30;;;;;;;7.47;6.55;;;;;;;24.12;93.39;97004.50;5088954;28;20098;-42
2022/08/09 04:55:59;;;;;;;7.10;6.47;;;;;;;24.30;90.97;97011.84;5088951;28;20079;-41
2022/08/09 04:58:28;;;;;;;9.30;6.40;;;;;;;24.59;87.82;97009.56;5081180;28;20076;-44
2022/08/09 05:00:59;;;;;;;7.15;6.55;;;;;;;24.84;83.05;97002.31;5075294;28;20084;-41
2022/08/09 05:03:28;;;;;;;9.43;6.88;;;;;;;25.13;81.33;97013.47;5068962;28;20076;-40
2022/08/09 05:06:12;;;;;;;8.13;7.32;;;;;;;25.46;78.02;97018.50;5077523;28;20458;-39
2022/08/09 05:08:54;;;;;;;7.85;7.00;;;;;;;25.69;75.16;97019.69;5079973;28;20071;-43
2022/08/09 05:11:28;;;;;;;7.70;6.90;;;;;;;25.87;74.71;97016.97;5082423;28;20083;-43
2022/08/09 05:14:04;;;;;;;7.68;6.97;;;;;;;25.69;83.25;97017.00;5075835;28;20051;-43
2022/08/09 05:16:34;;;;;;;7.63;7.03;;;;;;;24.63;100.00;97018.88;5069188;28;20088;-44
2022/08/09 05:19:22;;;;;;;9.00;7.28;;;;;;;24.67;100.00;97020.06;5079182;28;20080;-41
2022/08/09 05:22:00;;;;;;;8.20;7.40;;;;;;;25.27;96.88;97012.28;5075451;28;20084;-40
2022/08/09 05:24:28;;;;;;;7.75;6.93;;;;;;;25.42;96.17;97017.28;5071023;28;20474;-42
2022/08/09 05:26:57;;;;;;;7.75;7.05;;;;;;;25.50;95.84;97013.50;5077623;28;20483;-41
2022/08/09 05:29:27;;;;;;;7.63;6.80;;;;;;;25.38;95.92;97024.19;5074485;28;20087;-40
2022/08/09 05:32:02;;;;;;;8.18;6.85;;;;;;;25.32;98.95;97022.38;5074053;28;20549;-41
2022/08/09 05:34:33;;;;;;;8.18;6.82;;;;;;;25.17;97.58;97025.47;5069702;28;20084;-42
2022/08/09 05:37:04;;;;;;;8.13;6.63;;;;;;;24.84;100.00;97025.75;5068632;28;20080;-41
2022/08/09 05:39:35;;;;;;;10.05;6.50;;;;;;;24.81;100.00;97027.03;5076626;28;20585;-43
2022/08/09 05:42:11;;;;;;;9.05;6.07;;;;;;;24.16;100.00;97034.53;5075406;28;20068;-42
2022/08/09 05:44:49;;;;;;;6.57;5.93;;;;;;;24.42;100.00;97038.94;5075972;28;20294;-42
2022/08/09 05:47:19;;;;;;;7.50;5.47;;;;;;;23.60;100.00;97038.69;5076655;28;20075;-42
2022/08/09 05:49:50;;;;;;;10.68;5.97;;;;;;;23.27;100.00;97038.81;5073692;28;20082;-40
2022/08/09 05:52:41;;;;;;;8.25;6.03;;;;;;;22.59;100.00;97036.34;5079347;28;20084;-43
2022/08/09 05:55:10;;;;;;;10.05;6.38;;;;;;;21.80;100.00;97042.38;5079403;28;20096;-39
2022/08/09 05:57:48;;;;;;;7.45;6.60;;;;;;;21.74;100.00;97043.16;5091986;28;20473;-40
2022/08/09 06:00:24;;;;;;;8.75;6.50;;;;;;;22.36;100.00;97034.03;5085624;28;20084;-41
2022/08/09 06:02:55;;;;;;;7.60;6.43;;;;;;;22.20;100.00;97045.22;5084838;28;20076;-40
2022/08/09 06:05:25;;;;;;;7.25;6.53;;;;;;;22.19;100.00;97040.84;5079273;28;20072;-40
2022/08/09 06:08:16;;;;;;;6.80;6.10;;;;;;;22.49;100.00;97042.13;5079854;28;20076;-46
2022/08/09 06:10:53;;;;;;;8.70;6.70;;;;;;;21.98;100.00;97039.09;5087824;28;20103;-44
2022/08/09 06:13:23;;;;;;;13.00;6.32;;;;;;;22.03;100.00;97050.91;5078616;28;20080;-45
2022/08/09 06:15:51;;;;;;;7.60;6.25;;;;;;;22.30;100.00;97045.63;5084981;28;20075;-40
2022/08/09 06:18:20;;;;;;;7.80;6.00;;;;;;;22.59;100.00;97041.72;5078844;28;20759;-41
2022/08/09 06:20:53;;;;;;;7.50;6.00;;;;;;;22.48;100.00;97035.09;5078466;28;20075;-44
2022/08/09 06:23:28;;;;;;;8.38;5.82;;;;;;;22.66;100.00;97049.78;5078655;28;20086;-43
2022/08/09 06:26:16;;;;;;;6.53;5.90;;;;;;;22.94;100.00;97044.22;5079183;28;20088;-40
2022/08/09 06:28:50;;;;;;;7.35;6.03;;;;;;;22.94;100.00;97050.44;5072748;28;20470;-42
2022/08/09 06:31:32;;;;;;;6.97;5.80;;;;;;;23.13;100.00;97051.44;5071827;28;20080;-39
2022/08/09 06:34:21;;;;;;;7.07;5.75;;;;;;;22.93;100.00;97053.34;5075343;28;20094;-40
2022/08/09 06:36:51;;;;;;;7.60;5.90;;;;;;;23.20;100.00;97049.56;5080059;28;20072;-42
2022/08/09 06:39:29;;;;;;;6.25;5.65;;;;;;;23.21;100.00;97053.91;5078413;28;20095;-40
2022/08/09 06:42:18;;;;;;;7.47;6.07;;;;;;;22.91;100.00;97048.13;5078588;28;20080;-43
2022/08/09 06:44:52;;;;;;;10.45;5.15;;;;;;;23.16;100.00;97055.59;5078774;28;20107;-45
2022/08/09 06:47:22;;;;;;;6.20;5.30;;;;;;;23.01;100.00;97046.91;5083858;28;20099;-39
2022/08/09 06:49:51;;;;;;;5.43;4.93;;;;;;;23.16;100.00;97053.72;5083535;28;20082;-40
2022/08/09 06:52:44;;;;;;;7.55;5.30;;;;;;;23.32;100.00;97044.38;5087719;28;20076;-40
2022/08/09 06:55:20;;;;;;;9.85;5.88;;;;;;;23.52;100.00;97051.56;5078850;28;20084;-41
2022/08/09 06:57:51;;;;;;;7.13;5.32;;;;;;;23.89;100.00;97047.31;5072158;28;20536;-43
2022/08/09 07:00:32;;;;;;;6.95;4.70;;;;;;;23.93;100.00;97046.66;5083145;28;20076;-43
2022/08/09 07:03:21;;;;;;;9.02;4.15;;;;;;;24.10;100.00;97046.16;5082789;28;20083;-41
2022/08/09 07:05:57;;;;;;;4.93;4.43;;;;;;;24.12;100.00;97054.84;5090582;28;20076;-40
2022/08/09 07:08:34;;;;;;;5.45;4.20;;;;;;;24.26;100.00;97053.75;5078786;28;20138;-37
2022/08/09 07:11:08;;;;;;;7.07;4.25;;;;;;;24.48;100.00;97058.81;5084255;28;20095;-41
2022/08/09 07:13:40;;;;;;;4.90;4.18;;;;;;;23.95;100.00;97062.63;5075503;28;20087;-43
2022/08/09 07:16:25;;;;;;;6.25;4.38;;;;;;;24.21;100.00;97061.66;5078178;28;20068;-43
2022/08/09 07:19:12;;;;;;;5.78;4.28;;;;;;;24.43;100.00;97064.84;5081135;28;20087;-41
2022/08/09 07:21:47;;;;;;;6.35;3.97;;;;;;;24.51;100.00;97063.78;5077214;28;20052;-42
2022/08/09 07:24:25;;;;;;;7.65;4.03;;;;;;;24.74;99.43;97071.28;5079362;28;20501;-45
2022/08/09 07:27:10;;;;;;;5.05;3.92;;;;;;;24.50;100.00;97075.59;5078181;28;20095;-45
2022/08/09 07:29:58;;;;;;;6.72;3.67;;;;;;;24.70;100.00;97078.16;5077943;28;20083;-41
2022/08/09 07:32:27;;;;;;;6.03;3.80;;;;;;;24.49;100.00;97079.34;5080406;28;20086;-42
2022/08/09 07:35:02;;;;;;;5.00;3.92;;;;;;;24.78;96.62;97070.63;5083629;28;20087;-41
2022/08/09 07:37:39;;;;;;;7.28;3.78;;;;;;;25.34;92.29;97067.03;5077914;28;20091;-43
2022/08/09 07:40:14;;;;;;;5.53;3.88;;;;;;;25.48;84.84;97064.19;5070895;28;20075;-41
2022/08/09 07:42:54;;;;;;;4.63;3.15;;;;;;;25.27;79.77;97068.16;5080924;28;20514;-45
2022/08/09 07:45:26;;;;;;;4.28;3.20;;;;;;;25.11;76.70;97069.53;5085804;28;20091;-41
2022/08/09 07:48:08;;;;;;;5.32;2.80;;;;;;;25.85;77.63;97073.16;5082091;28;20079;-50
2022/08/09 07:50:58;;;;;;;5.25;2.80;;;;;;;25.66;68.69;97075.00;5077388;28;20071;-40
2022/08/09 07:53:47;;;;;;;3.33;2.60;;;;;;;25.88;71.06;97078.09;5070130;28;20041;-41
2022/08/09 07:56:36;;;;;;;4.93;2.85;;;;;;;25.85;67.46;97080.44;5086750;28;20482;-41
2022/08/09 07:59:19;;;;;;;3.60;2.75;;;;;;;25.68;64.57;97088.28;5079195;28;20082;-46
2022/08/09 08:02:07;;;;;;;4.07;2.30;;;;;;;25.80;64.35;97089.19;5083412;28;20076;-40
2022/08/09 08:04:37;;;;;;;4.43;2.60;;;;;;;26.03;62.86;97086.63;5078805;28;20574;-43
2022/08/09 08:07:06;;;;;;;3.03;2.72;;;;;;;25.95;63.85;97086.97;5083496;28;20489;-40
2022/08/09 08:09:54;;;;;;;5.10;3.00;;;;;;;26.14;61.86;97089.63;5085210;28;20080;-39
2022/08/09 08:12:40;;;;;;;4.90;3.13;;;;;;;26.63;66.69;97087.72;5083106;28;20080;-43
2022/08/09 08:15:14;;;;;;;3.22;2.78;;;;;;;26.48;63.38;97090.84;5083583;28;20542;-42
2022/08/09 08:17:45;;;;;;;4.70;2.85;;;;;;;26.65;56.98;97091.00;5084705;28;20083;-42
2022/08/09 08:20:27;;;;;;;4.90;3.05;;;;;;;26.46;60.65;97087.50;5079373;28;20482;-41
2022/08/09 08:23:02;;;;;;;4.47;3.05;;;;;;;26.35;59.47;97086.41;5076763;28;20068;-42
2022/08/09 08:25:45;;;;;;;4.50;3.10;;;;;;;26.07;60.10;97091.59;5083810;28;20542;-43
2022/08/09 08:28:18;;;;;;;3.38;2.70;;;;;;;26.35;58.06;97096.41;5077663;28;20111;-43
2022/08/09 08:31:02;;;;;;;4.32;2.67;;;;;;;26.27;56.77;97092.97;5076463;28;20083;-48
2022/08/09 08:33:42;;;;;;;9.60;3.40;;;;;;;25.84;59.26;97087.69;5074230;28;20663;-40
2022/08/09 08:36:24;;;;;;;7.45;3.00;;;;;;;27.03;55.50;97090.63;5083164;28;20613;-40
2022/08/09 08:38:56;;;;;;;3.50;2.80;;;;;;;26.63;57.42;97088.53;5080275;28;20106;-39
2022/08/09 08:41:25;;;;;;;3.92;2.90;;;;;;;26.98;53.84;97095.91;5073655;28;20087;-41
2022/08/09 08:44:13;;;;;;;6.20;2.90;;;;;;;26.81;53.91;97090.34;5082213;28;20079;-45
2022/08/09 08:46:43;;;;;;;5.00;2.80;;;;;;;26.92;55.94;97086.00;5079978;28;20092;-40
2022/08/09 08:49:32;;;;;;;3.92;2.95;;;;;;;26.91;51.82;97087.91;5075796;28;20484;-41
2022/08/09 08:52:17;;;;;;;2.75;2.40;;;;;;;26.92;50.29;97092.25;5087839;28;20518;-41
2022/08/09 08:55:06;;;;;;;5.50;2.55;;;;;;;27.46;49.75;97089.50;5076850;28;20079;-43
2022/08/09 08:57:34;;;;;;;3.65;2.70;;;;;;;27.76;47.41;97085.81;5083618;28;20080;-41
2022/08/09 09:00:07;;;;;;;7.03;3.10;;;;;;;27.35;48.14;97082.16;5083466;28;20451;-42
2022/08/09 09:02:58;;;;;;;4.53;2.40;;;;;;;27.65;46.99;97084.75;5082039;28;20091;-47
2022/08/09 09:05:36;;;;;;;4.63;2.90;;;;;;;27.32;46.36;97088.06;5073081;28;20649;-42
2022/08/09 09:08:24;;;;;;;5.82;2.75;;;;;;;26.90;46.54;97080.81;5076301;28;20076;-45
2022/08/09 09:11:01;;;;;;;3.60;2.90;;;;;;;27.61;46.78;97083.56;5087167;28;20083;-45
2022/08/09 09:13:30;;;;;;;6.05;2.60;;;;;;;27.49;44.79;97086.28;5070726;28;20459;-40
2022/08/09 09:16:18;;;;;;;3.03;2.40;;;;;;;27.98;44.38;97077.84;5082717;28;20087;-45
2022/08/09 09:19:01;;;;;;;4.45;2.60;;;;;;;27.57;45.41;97079.69;5073546;28;20105;-42
2022/08/09 09:22:00;;;;;;;4.63;3.03;;;;;;;27.39;45.16;97083.34;5074268;28;20080;-43
2022/08/09 09:24:33;;;;;;;4.13;2.60;;;;;;;28.02;44.17;97074.44;5076049;28;20174;-43
2022/08/09 09:27:06;;;;;;;5.00;2.58;;;;;;;27.77;45.42;97076.59;5086678;28;20077;-41
2022/08/09 09:29:37;;;;;;;3.90;2.40;;;;;;;27.78;43.04;97075.56;5076224;28;20076;-45
2022/08/09 09:32:26;;;;;;;5.57;2.45;;;;;;;27.99;44.23;97071.38;5075559;28;20083;-45
2022/08/09 09:35:08;;;;;;;3.28;2.60;;;;;;;28.06;44.11;97080.19;5074398;28;20075;-41
2022/08/09 09:37:38;;;;;;;6.15;2.80;;;;;;;27.85;43.52;97077.06;5078633;28;20459;-42
2022/08/09 09:40:09;;;;;;;5.22;2.70;;;;;;;28.06;43.70;97074.78;5084840;28;20079;-40
2022/08/09 09:42:39;;;;;;;3.30;2.83;;;;;;;27.85;45.47;97081.69;5079126;28;20088;-40
2022/08/09 09:45:13;;;;;;;4.85;3.08;;;;;;;27.83;46.04;97073.78;5082486;28;20088;-43
2022/08/09 09:47:56;;;;;;;5.38;2.88;;;;;;;27.98;46.89;97083.28;5079762;28;20080;-45
2022/08/09 09:50:41;;;;;;;5.13;3.25;;;;;;;28.14;45.96;97077.09;5082587;28;20072;-38
2022/08/09 09:53:20;;;;;;;3.83;3.20;;;;;;;28.41;45.45;97085.50;5082093;28;20055;-41
2022/08/09 09:56:09;;;;;;;5.32;2.60;;;;;;;28.55;42.20;97083.31;5074422;28;20088;-41
2022/08/09 09:58:57;;;;;;;3.13;2.28;;;;;;;27.72;40.50;97080.00;5070420;28;20076;-46
2022/08/09 10:01:27;;;;;;;5.47;2.40;;;;;;;27.98;40.44;97072.44;5074273;28;20107;-40
2022/08/09 10:04:06;;;;;;;3.80;2.78;;;;;;;27.40;42.16;97090.44;5072044;28;20526;-43
2022/08/09 10:06:40;;;;;;;5.35;2.83;;;;;;;28.63;40.79;97070.19;5082230;28;20075;-42
2022/08/09 10:09:11;;;;;;;5.20;2.30;;;;;;;27.73;41.75;97078.94;5071508;28;20095;-43
2022/08/09 10:11:56;;;;;;;3.47;2.47;;;;;;;28.04;41.25;97079.59;5068897;28;20095;-41
2022/08/09 10:14:40;;;;;;;9.15;2.53;;;;;;;27.82;41.41;97077.56;5080066;28;20080;-42
2022/08/09 10:17:17;;;;;;;4.68;2.63;;;;;;;27.60;41.66;97073.81;5082214;28;20506;-41
2022/08/09 10:20:22;;;;;;;2.90;2.60;;;;;;;28.39;40.74;97076.81;5076519;28;20106;-42
2022/08/09 10:23:14;;;;;;;3.53;2.63;;;;;;;28.27;41.14;97073.28;5076397;28;20088;-41
2022/08/09 10:25:47;;;;;;;3.75;2.55;;;;;;;29.28;40.40;97074.22;5075227;28;20080;-40
2022/08/09 10:28:36;;;;;;;5.80;2.70;;;;;;;28.66;40.01;97068.84;5078205;28;20088;-44
2022/08/09 10:31:05;;;;;;;;;;;;;;;28.74;39.44;97070.38;5087251;28;20134;-40
2022/08/09 10:33:53;;;;;;;3.92;2.28;;;;;;;29.23;39.34;97066.00;5081315;28;20366;-43
2022/08/09 10:36:38;;;;;;;3.95;2.40;;;;;;;28.85;39.89;97070.28;5077614;28;20099;-45
2022/08/09 10:39:08;;;;;;;2.95;2.25;;;;;;;28.35;38.61;97070.16;5075393;28;20452;-40
2022/08/09 10:41:45;;;;;;;4.05;2.28;;;;;;;28.66;38.52;97073.47;5070091;28;20721;-44
2022/08/09 10:44:19;;;;;;;2.95;2.33;;;;;;;28.76;38.46;97071.75;5076723;28;20084;-40
2022/08/09 10:47:05;;;;;;;3.65;2.45;;;;;;;29.36;38.44;97059.41;5087136;28;20084;-40
2022/08/09 10:50:04;;;;;;;4.35;2.40;;;;;;;28.94;38.09;97054.41;5077422;28;20467;-45
2022/08/09 10:52:50;;;;;;;3.60;2.53;;;;;;;28.26;40.13;97058.91;5073877;28;20590;-42
2022/08/09 10:55:24;;;;;;;3.90;2.45;;;;;;;28.88;37.73;97055.41;5080057;28;20084;-42
2022/08/09 10:57:53;;;;;;;4.55;2.45;;;;;;;28.94;37.18;97059.00;5091829;28;20087;-44
2022/08/09 11:00:32;;;;;;;;;;;;;;;28.75;37.90;97051.09;5072497;28;20080;-46
2022/08/09 11:03:02;;;;;;;4.15;2.35;;;;;;;29.08;39.09;97054.94;5078144;28;19963;-43
2022/08/09 11:06:20;;;;;;;3.90;2.42;;;;;;;29.81;38.01;97033.94;5076910;28;20076;-42
2022/08/09 11:08:50;;;;;;;2.93;2.40;;;;;;;29.34;36.85;97045.25;5072003;28;20087;-42
2022/08/09 11:11:23;;;;;;;5.70;2.28;;;;;;;29.91;37.15;97035.97;5089236;28;20518;-42
2022/08/09 11:14:30;;;;;;;4.05;2.80;;;;;;;29.00;39.96;97041.75;5070830;28;20080;-43
2022/08/09 11:16:59;;;;;;;4.05;2.60;;;;;;;28.60;40.09;97054.41;5072280;28;20470;-42
2022/08/09 11:19:53;;;;;;;3.70;2.92;;;;;;;29.31;39.34;97043.03;5077806;28;20072;-45
2022/08/09 11:22:57;;;;;;;2.72;2.40;;;;;;;29.53;39.42;97043.06;5085296;28;20080;-43
2022/08/09 11:25:40;;;;;;;4.10;2.60;;;;;;;29.68;39.14;97031.59;5078850;28;20083;-42
2022/08/09 11:28:39;;;;;;;4.37;2.67;;;;;;;29.47;38.44;97034.03;5079455;28;20107;-42
2022/08/09 11:31:43;;;;;;;5.22;2.47;;;;;;;29.06;39.79;97040.75;5083341;28;20095;-44
2022/08/09 11:34:24;;;;;;;3.00;2.53;;;;;;;29.12;39.13;97047.09;5079631;28;20099;-42
2022/08/09 11:36:54;;;;;;;4.35;2.50;;;;;;;29.51;38.68;97039.78;5082884;28;20088;-40
2022/08/09 11:39:23;;;;;;;4.13;2.30;;;;;;;29.98;38.15;97034.69;5079271;28;20091;-41
2022/08/09 11:42:08;;;;;;;2.88;2.20;;;;;;;29.45;38.64;97040.78;5078585;28;20090;-41
2022/08/09 11:44:47;;;;;;;5.43;2.40;;;;;;;29.79;38.21;97041.53;5081832;28;20071;-48
2022/08/09 11:47:16;;;;;;;5.18;2.53;;;;;;;29.74;37.53;97036.03;5084423;28;20109;-43
2022/08/09 11:50:00;;;;;;;4.53;2.07;;;;;;;29.73;38.02;97039.81;5076955;28;20080;-46
2022/08/09 11:53:17;;;;;;;3.45;2.40;;;;;;;29.73;37.70;97037.09;5076939;28;20110;-41
2022/08/09 11:56:25;;;;;;;4.50;2.30;;;;;;;29.70;38.10;97032.19;5077487;28;20123;-40
2022/08/09 11:59:24;;;;;;;3.60;2.10;;;;;;;29.98;38.02;97031.97;5081607;28;20083;-43
2022/08/09 12:02:02;;;;;;;3.38;1.90;;;;;;;30.06;37.64;97038.03;5083443;28;20170;-46
2022/08/09 12:04:52;;;;;;;3.95;2.63;;;;;;;30.20;36.69;97021.06;5084452;28;20118;-43
2022/08/09 12:07:29;;;;;;;3.40;1.90;;;;;;;29.96;34.97;97027.84;5077448;28;20630;-41
2022/08/09 12:10:11;;;;;;;3.50;1.92;;;;;;;30.02;35.26;97021.41;5075312;28;20080;-44
2022/08/09 12:13:00;;;;;;;4.13;2.13;;;;;;;30.31;34.98;97024.72;5078176;28;20074;-43
2022/08/09 12:15:48;;;;;;;3.47;1.90;;;;;;;30.29;35.97;97017.91;5070317;28;20076;-40
2022/08/09 12:18:21;;;;;;;3.72;1.90;;;;;;;30.38;36.63;97019.88;5088519;28;20463;-44
2022/08/09 12:20:57;;;;;;;2.92;2.08;;;;;;;30.61;36.93;97020.66;5070374;28;20116;-40
2022/08/09 12:23:30;;;;;;;4.25;2.10;;;;;;;30.32;36.23;97018.22;5070693;28;20531;-43